UHMM 071100Z 00000MPS 9999 FEW040 M37/M41 Q0996 RMK QFE733 R28/10002MPS
QNH:(hPa/inHg/mmHg)996 / 29.41 / 747
QFE:(hPa/inHg/mmHg)975 / 28.78 / 731
Temperature-37
Dew Point-41
Visibility> 10000
Weather
Cloud CoverFEW (4000);
Transition Height2500 m./8800 ft.
Transition LevelFL110
SQUAWK